Frankfort, Maine
Current Conditions -  °F | °C
As of 7:53 AM on Sunday 21 Dec 2014 (Local Time) from KBGR Reporting Station
Overcast Overcast  
Wind Chill: 19°   Ceiling: 3200
Heat Index: 25°   Visibility: 10mi
Dew Point: 22°   Wind: 5mph
Humidity: 88%   Direction: 360°N
Pressure: 30.36"   Gusts: NA
Location:  44.61°N, 68.88°W
Report Text: KBGR 211253Z 36004KT 10SM OVC032 M04/M06 A3036 RMK AO2 SNE13 SLP285 P0000 T10391056
Loading
Personal Weather Stations






























Interactive Weather Map New forecast layout! Learn more

10-Day Weather Forecast

Advertisements
Track Severe Weather on mobile